Time,TemperatureF,DewpointF,PressureIn,WindDirection,WindDirectionDegrees,WindSpeedMPH,WindSpeedGustMPH,Humidity,HourlyPrecipIn,Conditions,Clouds,dailyrainin,SoftwareType,DateUTC
2013-03-19 00:01:00,39.7,35.3,30.04,North,0,0.0,0.0,84,0.00,,,1.02,WUHU21623XXSP,2013-03-19 05:01:00,
2013-03-19 00:03:00,39.8,35.3,30.04,North,0,0.0,0.0,84,0.00,,,1.02,WUHU21623XXSP,2013-03-19 05:03:00,
2013-03-19 00:07:00,39.8,35.3,30.04,North,0,0.0,0.0,84,0.00,,,1.02,WUHU21623XXSP,2013-03-19 05:07:00,
2013-03-19 00:13:00,39.4,35.0,30.04,North,0,0.0,0.0,84,0.00,,,1.02,WUHU21623XXSP,2013-03-19 05:13:00,
2013-03-19 00:15:00,39.4,35.0,30.04,North,0,0.0,0.0,84,0.00,,,1.02,WUHU21623XXSP,2013-03-19 05:15:00,
2013-03-19 00:19:00,39.6,35.2,30.04,North,0,0.0,0.0,84,0.00,,,1.02,WUHU21623XXSP,2013-03-19 05:19:00,
2013-03-19 00:21:00,39.4,35.3,30.04,North,0,0.0,0.0,85,0.00,,,1.02,WUHU21623XXSP,2013-03-19 05:21:00,
2013-03-19 00:25:00,39.9,35.7,30.04,North,0,0.0,0.0,85,0.00,,,1.02,WUHU21623XXSP,2013-03-19 05:25:00,
2013-03-19 00:27:00,39.9,35.7,30.04,North,0,0.0,0.0,85,0.00,,,1.02,WUHU21623XXSP,2013-03-19 05:27:00,
2013-03-19 00:29:00,39.9,35.7,30.04,North,0,0.0,0.0,85,0.00,,,1.02,WUHU21623XXSP,2013-03-19 05:29:00,
2013-03-19 00:33:00,39.7,35.5,30.05,North,0,0.0,0.0,85,0.00,,,1.02,WUHU21623XXSP,2013-03-19 05:33:00,
2013-03-19 00:35:00,39.5,35.1,30.05,North,0,0.0,0.0,84,0.00,,,1.02,WUHU21623XXSP,2013-03-19 05:35:00,
2013-03-19 00:37:00,39.5,35.1,30.05,North,0,0.0,0.0,84,0.00,,,1.02,WUHU21623XXSP,2013-03-19 05:37:00,
2013-03-19 00:41:00,39.5,35.4,30.05,North,0,0.0,0.0,85,0.00,,,1.02,WUHU21623XXSP,2013-03-19 05:41:00,
2013-03-19 00:43:00,39.5,35.4,30.05,North,0,0.0,0.0,85,0.00,,,1.02,WUHU21623XXSP,2013-03-19 05:43:00,
2013-03-19 00:49:00,39.4,35.2,30.05,North,0,0.0,0.0,85,0.00,,,1.02,WUHU21623XXSP,2013-03-19 05:49:00,
2013-03-19 00:53:00,39.3,35.2,30.05,North,0,0.0,0.0,85,0.00,,,1.02,WUHU21623XXSP,2013-03-19 05:53:00,
2013-03-19 00:57:00,39.3,35.2,30.05,North,0,0.0,0.0,85,0.00,,,1.02,WUHU21623XXSP,2013-03-19 05:57:00,
2013-03-19 00:59:00,39.3,35.2,30.06,North,0,0.0,0.0,85,0.00,,,1.02,WUHU21623XXSP,2013-03-19 05:59:00,
2013-03-19 01:03:00,39.4,35.2,30.05,North,0,0.0,0.0,85,0.00,,,0.00,WUHU21623XXSP,2013-03-19 06:03:00,
2013-03-19 01:05:00,39.4,35.2,30.05,North,0,0.0,0.0,85,0.00,,,0.00,WUHU21623XXSP,2013-03-19 06:05:00,
2013-03-19 01:09:00,39.2,35.0,30.06,North,0,0.0,0.0,85,0.00,,,0.00,WUHU21623XXSP,2013-03-19 06:09:00,
2013-03-19 01:11:00,39.2,35.0,30.06,West,270,0.0,0.0,85,0.00,,,0.00,WUHU21623XXSP,2013-03-19 06:11:00,
2013-03-19 01:13:00,39.2,35.1,30.06,North,0,0.0,0.0,85,0.00,,,0.00,WUHU21623XXSP,2013-03-19 06:13:00,
2013-03-19 01:17:00,39.2,35.1,30.06,North,0,0.0,0.0,85,0.00,,,0.00,WUHU21623XXSP,2013-03-19 06:17:00,
2013-03-19 01:19:00,39.2,35.1,30.06,North,0,0.0,0.0,85,0.00,,,0.00,WUHU21623XXSP,2013-03-19 06:19:00,
2013-03-19 01:21:00,39.3,35.1,30.06,North,0,0.0,0.0,85,0.00,,,0.00,WUHU21623XXSP,2013-03-19 06:21:00,
2013-03-19 01:28:00,39.1,34.9,30.07,North,0,0.0,0.0,85,0.00,,,0.00,WUHU21623XXSP,2013-03-19 06:28:00,
2013-03-19 01:30:00,39.1,35.0,30.07,North,0,0.0,0.0,85,0.00,,,0.00,WUHU21623XXSP,2013-03-19 06:30:00,
2013-03-19 01:32:00,39.1,35.0,30.07,North,0,0.0,0.0,85,0.00,,,0.00,WUHU21623XXSP,2013-03-19 06:32:00,
2013-03-19 01:38:00,39.0,34.8,30.07,North,0,0.0,0.0,85,0.00,,,0.00,WUHU21623XXSP,2013-03-19 06:38:00,
2013-03-19 01:40:00,39.0,34.8,30.07,North,0,0.0,0.0,85,0.00,,,0.00,WUHU21623XXSP,2013-03-19 06:40:00,
2013-03-19 01:44:00,39.0,34.8,30.07,North,0,0.0,0.0,85,0.00,,,0.00,WUHU21623XXSP,2013-03-19 06:44:00,
2013-03-19 01:46:00,39.0,34.8,30.07,North,0,0.0,0.0,85,0.00,,,0.00,WUHU21623XXSP,2013-03-19 06:46:00,
2013-03-19 01:48:00,39.0,34.9,30.07,North,0,0.0,0.0,85,0.00,,,0.00,WUHU21623XXSP,2013-03-19 06:48:00,
2013-03-19 01:50:00,39.0,34.9,30.07,North,0,0.0,0.0,85,0.00,,,0.00,WUHU21623XXSP,2013-03-19 06:50:00,
2013-03-19 01:54:00,39.0,34.9,30.07,North,0,0.0,0.0,85,0.00,,,0.00,WUHU21623XXSP,2013-03-19 06:54:00,
2013-03-19 01:56:00,39.1,34.9,30.07,North,0,0.0,0.0,85,0.00,,,0.00,WUHU21623XXSP,2013-03-19 06:56:00,
2013-03-19 02:02:00,39.1,34.9,30.07,North,0,0.0,0.0,85,0.00,,,0.00,WUHU21623XXSP,2013-03-19 07:02:00,
2013-03-19 02:04:00,39.1,35.0,30.07,North,0,0.0,0.0,85,0.00,,,0.00,WUHU21623XXSP,2013-03-19 07:04:00,
2013-03-19 02:06:00,38.9,34.8,30.07,North,0,0.0,0.0,85,0.00,,,0.00,WUHU21623XXSP,2013-03-19 07:06:00,
2013-03-19 02:08:00,38.9,34.8,30.07,North,0,0.0,0.0,85,0.00,,,0.00,WUHU21623XXSP,2013-03-19 07:08:00,
2013-03-19 02:12:00,39.0,34.8,30.07,North,0,0.0,0.0,85,0.00,,,0.00,WUHU21623XXSP,2013-03-19 07:12:00,
2013-03-19 02:14:00,39.0,34.8,30.07,North,0,0.0,0.0,85,0.00,,,0.00,WUHU21623XXSP,2013-03-19 07:14:00,
2013-03-19 02:16:00,38.9,34.7,30.07,West,270,0.0,0.0,85,0.00,,,0.00,WUHU21623XXSP,2013-03-19 07:16:00,
2013-03-19 02:20:00,38.9,34.7,30.07,North,0,0.0,0.0,85,0.00,,,0.00,WUHU21623XXSP,2013-03-19 07:20:00,
2013-03-19 02:22:00,38.9,34.8,30.07,North,0,0.0,0.0,85,0.00,,,0.00,WUHU21623XXSP,2013-03-19 07:22:00,
2013-03-19 02:24:00,38.9,34.8,30.07,North,0,0.0,0.0,85,0.00,,,0.00,WUHU21623XXSP,2013-03-19 07:24:00,
2013-03-19 02:26:00,38.7,34.6,30.07,North,0,0.0,0.0,85,0.00,,,0.00,WUHU21623XXSP,2013-03-19 07:26:00,
2013-03-19 02:30:00,38.8,34.9,30.07,North,0,0.0,0.0,86,0.00,,,0.00,WUHU21623XXSP,2013-03-19 07:30:00,
2013-03-19 02:32:00,38.8,34.9,30.07,North,0,0.0,0.0,86,0.00,,,0.00,WUHU21623XXSP,2013-03-19 07:32:00,
2013-03-19 02:34:00,38.6,34.7,30.07,North,0,0.0,0.0,86,0.00,,,0.00,WUHU21623XXSP,2013-03-19 07:34:00,
2013-03-19 02:36:00,38.4,34.5,30.07,North,0,0.0,0.0,86,0.00,,,0.00,WUHU21623XXSP,2013-03-19 07:36:00,
2013-03-19 02:40:00,38.4,34.6,30.07,North,0,0.0,0.0,86,0.00,,,0.00,WUHU21623XXSP,2013-03-19 07:40:00,
2013-03-19 02:42:00,38.4,34.6,30.07,North,0,0.0,0.0,86,0.00,,,0.00,WUHU21623XXSP,2013-03-19 07:42:00,
2013-03-19 02:46:00,38.5,34.6,30.07,North,0,0.0,0.0,86,0.00,,,0.00,WUHU21623XXSP,2013-03-19 07:46:00,
2013-03-19 02:48:00,38.3,34.4,30.07,North,0,0.0,0.0,86,0.00,,,0.00,WUHU21623XXSP,2013-03-19 07:48:00,
2013-03-19 02:50:00,38.3,34.4,30.07,North,0,0.0,0.0,86,0.00,,,0.00,WUHU21623XXSP,2013-03-19 07:50:00,
2013-03-19 02:54:00,38.3,34.5,30.07,North,0,0.0,0.0,86,0.00,,,0.00,WUHU21623XXSP,2013-03-19 07:54:00,
2013-03-19 02:58:00,38.3,34.5,30.07,North,0,0.0,0.0,86,0.00,,,0.00,WUHU21623XXSP,2013-03-19 07:58:00,
2013-03-19 03:02:00,38.4,34.5,30.07,North,0,0.0,0.0,86,0.00,,,0.00,WUHU21623XXSP,2013-03-19 08:02:00,
2013-03-19 03:04:00,38.4,34.5,30.07,North,0,0.0,0.0,86,0.00,,,0.00,WUHU21623XXSP,2013-03-19 08:04:00,
2013-03-19 03:06:00,38.3,34.4,30.07,North,0,0.0,0.0,86,0.00,,,0.00,WUHU21623XXSP,2013-03-19 08:06:00,
2013-03-19 03:08:00,38.3,34.5,30.07,North,0,0.0,0.0,86,0.00,,,0.00,WUHU21623XXSP,2013-03-19 08:08:00,
2013-03-19 03:10:00,38.3,34.5,30.07,North,0,0.0,0.0,86,0.00,,,0.00,WUHU21623XXSP,2013-03-19 08:10:00,
2013-03-19 03:12:00,38.1,34.3,30.07,North,0,0.0,0.0,86,0.00,,,0.00,WUHU21623XXSP,2013-03-19 08:12:00,
2013-03-19 03:17:00,38.2,34.3,30.07,North,0,0.0,0.0,86,0.00,,,0.00,WUHU21623XXSP,2013-03-19 08:17:00,
2013-03-19 03:21:00,38.2,34.3,30.06,North,0,0.0,0.0,86,0.00,,,0.00,WUHU21623XXSP,2013-03-19 08:21:00,
2013-03-19 03:25:00,38.2,34.4,30.06,North,0,0.0,0.0,86,0.00,,,0.00,WUHU21623XXSP,2013-03-19 08:25:00,
2013-03-19 03:27:00,38.2,34.4,30.06,North,0,0.0,0.0,86,0.00,,,0.00,WUHU21623XXSP,2013-03-19 08:27:00,
2013-03-19 03:31:00,38.1,34.2,30.05,North,0,0.0,0.0,86,0.00,,,0.00,WUHU21623XXSP,2013-03-19 08:31:00,
2013-03-19 03:33:00,38.1,34.2,30.05,North,0,0.0,0.0,86,0.00,,,0.00,WUHU21623XXSP,2013-03-19 08:33:00,
2013-03-19 03:37:00,37.9,34.0,30.05,South,180,0.0,0.0,86,0.00,,,0.00,WUHU21623XXSP,2013-03-19 08:37:00,
2013-03-19 03:39:00,37.9,34.1,30.04,North,0,0.0,0.0,86,0.00,,,0.00,WUHU21623XXSP,2013-03-19 08:39:00,
2013-03-19 03:41:00,37.7,33.9,30.04,North,0,0.0,0.0,86,0.00,,,0.00,WUHU21623XXSP,2013-03-19 08:41:00,
2013-03-19 03:47:00,37.7,34.1,30.04,North,0,0.0,0.0,87,0.00,,,0.00,WUHU21623XXSP,2013-03-19 08:47:00,
2013-03-19 03:53:00,37.5,33.9,30.05,North,0,0.0,0.0,87,0.00,,,0.00,WUHU21623XXSP,2013-03-19 08:53:00,
2013-03-19 03:55:00,37.5,34.0,30.05,North,0,0.0,0.0,87,0.00,,,0.00,WUHU21623XXSP,2013-03-19 08:55:00,
2013-03-19 03:57:00,37.5,34.0,30.05,North,0,0.0,0.0,87,0.00,,,0.00,WUHU21623XXSP,2013-03-19 08:57:00,
2013-03-19 03:59:00,37.5,34.0,30.05,North,0,0.0,0.0,87,0.00,,,0.00,WUHU21623XXSP,2013-03-19 08:59:00,
2013-03-19 04:03:00,37.4,33.8,30.05,North,0,0.0,0.0,87,0.00,,,0.00,WUHU21623XXSP,2013-03-19 09:03:00,
2013-03-19 04:05:00,37.4,33.8,30.05,North,0,0.0,0.0,87,0.00,,,0.00,WUHU21623XXSP,2013-03-19 09:05:00,
2013-03-19 04:07:00,37.4,33.8,30.05,North,0,0.0,0.0,87,0.00,,,0.00,WUHU21623XXSP,2013-03-19 09:07:00,
2013-03-19 04:11:00,37.2,33.7,30.05,North,0,0.0,0.0,87,0.00,,,0.00,WUHU21623XXSP,2013-03-19 09:11:00,
2013-03-19 04:13:00,37.2,33.7,30.05,North,0,0.0,0.0,87,0.00,,,0.00,WUHU21623XXSP,2013-03-19 09:13:00,
2013-03-19 04:17:00,37.2,33.4,30.05,North,0,0.0,0.0,86,0.00,,,0.00,WUHU21623XXSP,2013-03-19 09:17:00,
2013-03-19 04:19:00,37.2,33.4,30.05,North,0,0.0,0.0,86,0.00,,,0.00,WUHU21623XXSP,2013-03-19 09:19:00,
2013-03-19 04:23:00,37.2,33.4,30.05,North,0,0.0,0.0,86,0.00,,,0.00,WUHU21623XXSP,2013-03-19 09:23:00,
2013-03-19 04:29:00,37.0,33.2,30.06,North,0,0.0,0.0,86,0.00,,,0.00,WUHU21623XXSP,2013-03-19 09:29:00,
2013-03-19 04:31:00,37.0,33.2,30.06,North,0,0.0,0.0,86,0.00,,,0.00,WUHU21623XXSP,2013-03-19 09:31:00,
2013-03-19 04:37:00,37.0,33.2,30.06,North,0,0.0,0.0,86,0.00,,,0.00,WUHU21623XXSP,2013-03-19 09:37:00,
2013-03-19 04:41:00,37.0,33.2,30.06,SSW,202,0.0,0.0,86,0.00,,,0.00,WUHU21623XXSP,2013-03-19 09:41:00,
2013-03-19 04:43:00,37.0,33.2,30.06,North,0,0.0,0.0,86,0.00,,,0.00,WUHU21623XXSP,2013-03-19 09:43:00,
2013-03-19 04:45:00,37.0,33.2,30.07,North,0,0.0,0.0,86,0.00,,,0.00,WUHU21623XXSP,2013-03-19 09:45:00,
2013-03-19 04:51:00,37.0,33.2,30.07,North,0,0.0,0.0,86,0.00,,,0.00,WUHU21623XXSP,2013-03-19 09:51:00,
2013-03-19 04:53:00,37.0,33.2,30.07,North,0,0.0,0.0,86,0.00,,,0.00,WUHU21623XXSP,2013-03-19 09:53:00,
2013-03-19 04:55:00,37.0,33.2,30.07,North,0,0.0,0.0,86,0.00,,,0.00,WUHU21623XXSP,2013-03-19 09:55:00,
2013-03-19 05:01:00,36.7,32.8,30.07,North,0,0.0,0.0,86,0.00,,,0.00,WUHU21623XXSP,2013-03-19 10:01:00,
2013-03-19 05:07:00,36.3,32.8,30.06,North,0,0.0,0.0,87,0.00,,,0.00,WUHU21623XXSP,2013-03-19 10:07:00,
2013-03-19 05:11:00,36.3,32.8,30.07,North,0,0.0,0.0,87,0.00,,,0.00,WUHU21623XXSP,2013-03-19 10:11:00,
2013-03-19 05:17:00,36.3,32.8,30.07,North,0,0.0,0.0,87,0.00,,,0.00,WUHU21623XXSP,2013-03-19 10:17:00,
2013-03-19 05:23:00,36.1,32.6,30.07,North,0,0.0,0.0,87,0.00,,,0.00,WUHU21623XXSP,2013-03-19 10:23:00,
2013-03-19 05:25:00,36.1,32.6,30.07,North,0,0.0,0.0,87,0.00,,,0.00,WUHU21623XXSP,2013-03-19 10:25:00,
2013-03-19 05:30:00,36.0,32.4,30.09,North,0,0.0,0.0,87,0.00,,,0.00,WUHU21623XXSP,2013-03-19 10:30:00,
2013-03-19 05:32:00,36.1,32.6,30.09,North,0,0.0,0.0,87,0.00,,,0.00,WUHU21623XXSP,2013-03-19 10:32:00,
2013-03-19 05:36:00,35.8,32.2,30.09,North,0,0.0,0.0,87,0.00,,,0.00,WUHU21623XXSP,2013-03-19 10:36:00,
2013-03-19 05:38:00,35.8,32.2,30.10,North,0,0.0,0.0,87,0.00,,,0.00,WUHU21623XXSP,2013-03-19 10:38:00,
2013-03-19 05:40:00,35.4,31.9,30.10,North,0,0.0,0.0,87,0.00,,,0.00,WUHU21623XXSP,2013-03-19 10:40:00,
2013-03-19 05:42:00,35.4,31.9,30.10,North,0,0.0,0.0,87,0.00,,,0.00,WUHU21623XXSP,2013-03-19 10:42:00,
2013-03-19 05:46:00,35.2,31.7,30.10,North,0,0.0,0.0,87,0.00,,,0.00,WUHU21623XXSP,2013-03-19 10:46:00,
2013-03-19 05:48:00,35.2,31.7,30.10,North,0,0.0,0.0,87,0.00,,,0.00,WUHU21623XXSP,2013-03-19 10:48:00,
2013-03-19 05:50:00,35.2,31.7,30.10,North,0,0.0,0.0,87,0.00,,,0.00,WUHU21623XXSP,2013-03-19 10:50:00,
2013-03-19 05:54:00,34.9,31.3,30.10,North,0,0.0,0.0,87,0.00,,,0.00,WUHU21623XXSP,2013-03-19 10:54:00,
2013-03-19 06:00:00,34.9,31.3,30.09,North,0,0.0,0.0,87,0.00,,,0.00,WUHU21623XXSP,2013-03-19 11:00:00,
2013-03-19 06:02:00,35.1,31.5,30.10,North,0,0.0,0.0,87,0.00,,,0.00,WUHU21623XXSP,2013-03-19 11:02:00,
2013-03-19 06:06:00,34.9,31.3,30.10,North,0,0.0,0.0,87,0.00,,,0.00,WUHU21623XXSP,2013-03-19 11:06:00,
2013-03-19 06:10:00,34.9,31.3,30.10,North,0,0.0,0.0,87,0.00,,,0.00,WUHU21623XXSP,2013-03-19 11:10:00,
2013-03-19 06:16:00,34.3,30.8,30.10,North,0,0.0,0.0,87,0.00,,,0.00,WUHU21623XXSP,2013-03-19 11:16:00,
2013-03-19 06:18:00,34.3,30.8,30.10,North,0,0.0,0.0,87,0.00,,,0.00,WUHU21623XXSP,2013-03-19 11:18:00,
2013-03-19 06:20:00,34.3,30.8,30.10,North,0,0.0,0.0,87,0.00,,,0.00,WUHU21623XXSP,2013-03-19 11:20:00,
2013-03-19 06:24:00,34.3,30.8,30.09,North,0,0.0,0.0,87,0.00,,,0.00,WUHU21623XXSP,2013-03-19 11:24:00,
2013-03-19 06:26:00,34.3,30.8,30.10,North,0,0.0,0.0,87,0.00,,,0.00,WUHU21623XXSP,2013-03-19 11:26:00,
2013-03-19 06:28:00,34.5,31.0,30.09,North,0,0.0,0.0,87,0.00,,,0.00,WUHU21623XXSP,2013-03-19 11:28:00,
2013-03-19 06:30:00,34.7,31.1,30.10,North,0,0.0,0.0,87,0.00,,,0.00,WUHU21623XXSP,2013-03-19 11:30:00,
2013-03-19 06:34:00,35.2,31.7,30.10,North,0,2.5,2.5,87,0.00,,,0.00,WUHU21623XXSP,2013-03-19 11:34:00,
2013-03-19 06:36:00,35.4,31.7,30.11,North,0,2.5,2.5,87,0.00,,,0.00,WUHU21623XXSP,2013-03-19 11:36:00,
2013-03-19 06:42:00,35.4,31.9,30.11,North,0,0.0,0.0,87,0.00,,,0.00,WUHU21623XXSP,2013-03-19 11:42:00,
2013-03-19 06:46:00,35.8,32.2,30.11,North,0,5.4,5.4,87,0.00,,,0.00,WUHU21623XXSP,2013-03-19 11:46:00,
2013-03-19 06:50:00,35.8,32.5,30.12,North,0,4.9,4.9,88,0.00,,,0.00,WUHU21623XXSP,2013-03-19 11:50:00,
2013-03-19 06:52:00,35.8,32.5,30.12,North,0,6.5,6.5,88,0.00,,,0.00,WUHU21623XXSP,2013-03-19 11:52:00,
2013-03-19 06:56:00,35.8,32.5,30.12,North,0,4.9,6.5,88,0.00,,,0.00,WUHU21623XXSP,2013-03-19 11:56:00,
2013-03-19 06:58:00,35.8,32.5,30.12,North,0,4.0,4.0,88,0.00,,,0.00,WUHU21623XXSP,2013-03-19 11:58:00,
2013-03-19 07:02:00,36.0,32.7,30.13,North,0,0.0,0.0,88,0.00,,,0.00,WUHU21623XXSP,2013-03-19 12:02:00,
2013-03-19 07:04:00,36.0,32.7,30.13,North,0,0.0,0.0,88,0.00,,,0.00,WUHU21623XXSP,2013-03-19 12:04:00,
2013-03-19 07:09:00,36.1,32.9,30.13,North,0,0.0,0.0,88,0.00,,,0.00,WUHU21623XXSP,2013-03-19 12:09:00,
2013-03-19 07:13:00,36.1,32.9,30.13,North,0,0.0,0.0,88,0.00,,,0.00,WUHU21623XXSP,2013-03-19 12:13:00,
2013-03-19 07:15:00,36.3,33.0,30.13,North,0,0.0,0.0,88,0.00,,,0.00,WUHU21623XXSP,2013-03-19 12:15:00,
2013-03-19 07:17:00,36.3,33.0,30.13,North,0,0.0,0.0,88,0.00,,,0.00,WUHU21623XXSP,2013-03-19 12:17:00,
2013-03-19 07:23:00,36.5,33.2,30.13,North,0,0.0,0.0,88,0.00,,,0.00,WUHU21623XXSP,2013-03-19 12:23:00,
2013-03-19 07:27:00,36.7,33.4,30.13,North,0,0.0,0.0,88,0.00,,,0.00,WUHU21623XXSP,2013-03-19 12:27:00,
2013-03-19 07:29:00,36.9,33.6,30.13,North,0,0.0,0.0,88,0.00,,,0.00,WUHU21623XXSP,2013-03-19 12:29:00,
2013-03-19 07:31:00,36.9,33.6,30.13,NNE,22,0.0,0.0,88,0.00,,,0.00,WUHU21623XXSP,2013-03-19 12:31:00,
2013-03-19 07:35:00,37.0,33.8,30.13,North,0,0.0,0.0,88,0.00,,,0.00,WUHU21623XXSP,2013-03-19 12:35:00,
2013-03-19 07:37:00,37.0,33.8,30.14,North,0,0.0,0.0,88,0.00,,,0.00,WUHU21623XXSP,2013-03-19 12:37:00,
2013-03-19 07:41:00,37.2,33.9,30.14,North,0,0.0,0.0,88,0.00,,,0.00,WUHU21623XXSP,2013-03-19 12:41:00,
2013-03-19 07:45:00,37.2,33.9,30.14,North,0,0.0,0.0,88,0.00,,,0.00,WUHU21623XXSP,2013-03-19 12:45:00,
2013-03-19 07:51:00,37.6,34.3,30.14,North,0,0.0,0.0,88,0.00,,,0.00,WUHU21623XXSP,2013-03-19 12:51:00,
2013-03-19 07:53:00,37.8,34.2,30.14,North,0,0.0,0.0,87,0.00,,,0.00,WUHU21623XXSP,2013-03-19 12:53:00,
2013-03-19 07:55:00,37.9,34.4,30.14,North,0,0.0,0.0,87,0.00,,,0.00,WUHU21623XXSP,2013-03-19 12:55:00,
2013-03-19 07:57:00,37.9,34.4,30.14,North,0,0.0,0.0,87,0.00,,,0.00,WUHU21623XXSP,2013-03-19 12:57:00,
2013-03-19 08:01:00,38.3,34.7,30.14,North,0,0.0,0.0,87,0.00,,,0.00,WUHU21623XXSP,2013-03-19 13:01:00,
2013-03-19 08:03:00,38.3,34.7,30.14,North,0,0.0,0.0,87,0.00,,,0.00,WUHU21623XXSP,2013-03-19 13:03:00,
2013-03-19 08:07:00,38.8,35.3,30.14,North,0,0.0,0.0,87,0.00,,,0.00,WUHU21623XXSP,2013-03-19 13:07:00,
2013-03-19 08:11:00,38.8,35.3,30.14,North,0,0.0,0.0,87,0.00,,,0.00,WUHU21623XXSP,2013-03-19 13:11:00,
2013-03-19 08:13:00,39.0,35.2,30.14,North,0,0.0,0.0,86,0.00,,,0.00,WUHU21623XXSP,2013-03-19 13:13:00,
2013-03-19 08:15:00,39.2,35.3,30.14,North,0,0.0,0.0,86,0.00,,,0.00,WUHU21623XXSP,2013-03-19 13:15:00,
2013-03-19 08:17:00,39.4,35.5,30.14,NNE,22,2.7,2.7,86,0.00,,,0.00,WUHU21623XXSP,2013-03-19 13:17:00,
2013-03-19 08:19:00,39.7,35.5,30.14,North,0,0.0,0.0,85,0.00,,,0.00,WUHU21623XXSP,2013-03-19 13:19:00,
2013-03-19 08:21:00,39.9,35.7,30.14,NNE,22,7.4,7.4,85,0.00,,,0.00,WUHU21623XXSP,2013-03-19 13:21:00,
2013-03-19 08:25:00,40.1,35.3,30.14,North,0,0.0,0.0,83,0.00,,,0.00,WUHU21623XXSP,2013-03-19 13:25:00,
2013-03-19 08:31:00,40.6,35.2,30.15,NNE,22,7.4,7.4,81,0.00,,,0.00,WUHU21623XXSP,2013-03-19 13:31:00,
2013-03-19 08:33:00,40.8,35.4,30.14,NE,45,6.3,6.3,81,0.00,,,0.00,WUHU21623XXSP,2013-03-19 13:33:00,
2013-03-19 08:39:00,41.4,35.0,30.14,NNE,22,5.1,5.1,78,0.00,,,0.00,WUHU21623XXSP,2013-03-19 13:39:00,
2013-03-19 08:42:00,41.5,34.8,30.14,NE,45,7.2,7.2,77,0.00,,,0.00,WUHU21623XXSP,2013-03-19 13:42:00,
2013-03-19 08:48:00,41.7,34.3,30.14,NE,45,4.9,4.9,75,0.00,,,0.00,WUHU21623XXSP,2013-03-19 13:48:00,
2013-03-19 08:52:00,42.1,34.1,30.15,NNE,22,7.4,7.4,73,0.00,,,0.00,WUHU21623XXSP,2013-03-19 13:52:00,
2013-03-19 08:54:00,42.1,34.1,30.15,NNE,22,8.3,8.3,73,0.00,,,0.00,WUHU21623XXSP,2013-03-19 13:54:00,
2013-03-19 09:00:00,42.6,33.2,30.15,SSW,202,10.5,10.5,69,0.00,,,0.00,WUHU21623XXSP,2013-03-19 14:00:00,
2013-03-19 09:06:00,42.6,32.8,30.16,SSW,202,9.6,9.6,68,0.00,,,0.00,WUHU21623XXSP,2013-03-19 14:06:00,
2013-03-19 09:10:00,42.8,32.6,30.16,South,180,10.7,10.7,67,0.00,,,0.00,WUHU21623XXSP,2013-03-19 14:10:00,
2013-03-19 09:14:00,43.0,32.4,30.16,South,180,8.1,8.1,66,0.00,,,0.00,WUHU21623XXSP,2013-03-19 14:14:00,
2013-03-19 09:18:00,43.0,32.4,30.17,North,0,9.2,9.2,66,0.00,,,0.00,WUHU21623XXSP,2013-03-19 14:18:00,
2013-03-19 09:20:00,43.0,32.0,30.17,SSW,202,10.3,10.3,65,0.00,,,0.00,WUHU21623XXSP,2013-03-19 14:20:00,
2013-03-19 09:24:00,43.2,32.2,30.17,South,180,8.3,10.5,65,0.00,,,0.00,WUHU21623XXSP,2013-03-19 14:24:00,
2013-03-19 09:26:00,43.3,32.7,30.17,South,180,7.4,7.4,66,0.00,,,0.00,WUHU21623XXSP,2013-03-19 14:26:00,
2013-03-19 09:28:00,43.5,32.9,30.17,SSW,202,8.3,8.3,66,0.00,,,0.00,WUHU21623XXSP,2013-03-19 14:28:00,
2013-03-19 09:32:00,43.9,32.8,30.17,South,180,6.0,6.0,65,0.00,,,0.00,WUHU21623XXSP,2013-03-19 14:32:00,
2013-03-19 09:34:00,44.2,33.6,30.17,South,180,7.6,7.6,66,0.00,,,0.00,WUHU21623XXSP,2013-03-19 14:34:00,
2013-03-19 09:36:00,44.4,33.4,30.17,South,180,7.6,7.6,65,0.00,,,0.00,WUHU21623XXSP,2013-03-19 14:36:00,
2013-03-19 09:38:00,44.4,33.4,30.17,SSW,202,6.9,6.9,65,0.00,,,0.00,WUHU21623XXSP,2013-03-19 14:38:00,
2013-03-19 09:42:00,44.8,33.3,30.18,South,180,7.8,7.8,64,0.00,,,0.00,WUHU21623XXSP,2013-03-19 14:42:00,
2013-03-19 09:44:00,44.8,32.9,30.18,SSE,157,4.3,4.3,63,0.00,,,0.00,WUHU21623XXSP,2013-03-19 14:44:00,
2013-03-19 09:46:00,45.0,33.5,30.18,South,180,7.4,7.4,64,0.00,,,0.00,WUHU21623XXSP,2013-03-19 14:46:00,
2013-03-19 09:48:00,45.1,32.9,30.18,South,180,7.4,7.4,62,0.00,,,0.00,WUHU21623XXSP,2013-03-19 14:48:00,
2013-03-19 09:54:00,45.5,33.2,30.18,South,180,8.1,8.1,62,0.00,,,0.00,WUHU21623XXSP,2013-03-19 14:54:00,
2013-03-19 09:58:00,45.7,33.4,30.17,South,180,7.8,8.3,62,0.00,,,0.00,WUHU21623XXSP,2013-03-19 14:58:00,
2013-03-19 10:00:00,45.9,33.5,30.18,SSW,202,6.5,6.5,62,0.00,,,0.00,WUHU21623XXSP,2013-03-19 15:00:00,
2013-03-19 10:07:00,46.2,33.1,30.18,SSW,202,6.3,6.3,60,0.00,,,0.00,WUHU21623XXSP,2013-03-19 15:07:00,
2013-03-19 10:13:00,46.6,32.1,30.18,SSW,202,9.4,9.4,57,0.00,,,0.00,WUHU21623XXSP,2013-03-19 15:13:00,
2013-03-19 10:15:00,46.6,32.1,30.18,SSW,202,8.9,8.9,57,0.00,,,0.00,WUHU21623XXSP,2013-03-19 15:15:00,
2013-03-19 10:19:00,47.1,32.6,30.19,SSW,202,11.9,11.9,57,0.00,,,0.00,WUHU21623XXSP,2013-03-19 15:19:00,
2013-03-19 10:21:00,47.1,32.1,30.19,SSW,202,10.3,10.3,56,0.00,,,0.00,WUHU21623XXSP,2013-03-19 15:21:00,
2013-03-19 10:25:00,47.1,32.1,30.19,South,180,6.7,6.7,56,0.00,,,0.00,WUHU21623XXSP,2013-03-19 15:25:00,
2013-03-19 10:27:00,47.3,32.1,30.19,SSE,157,7.2,7.2,56,0.00,,,0.00,WUHU21623XXSP,2013-03-19 15:27:00,
2013-03-19 10:29:00,47.5,32.0,30.19,SSE,157,6.5,6.5,55,0.00,,,0.00,WUHU21623XXSP,2013-03-19 15:29:00,
2013-03-19 10:33:00,47.7,31.3,30.19,South,180,1.6,1.6,53,0.00,,,0.00,WUHU21623XXSP,2013-03-19 15:33:00,
2013-03-19 10:39:00,48.0,31.6,30.20,SSW,202,8.7,8.7,53,0.00,,,0.00,WUHU21623XXSP,2013-03-19 15:39:00,
2013-03-19 10:41:00,48.0,31.6,30.20,SSW,202,8.7,8.7,53,0.00,,,0.00,WUHU21623XXSP,2013-03-19 15:41:00,
2013-03-19 10:43:00,48.2,31.8,30.20,SW,225,6.9,6.9,53,0.00,,,0.00,WUHU21623XXSP,2013-03-19 15:43:00,
2013-03-19 10:49:00,48.6,31.2,30.20,SSE,157,5.6,5.6,51,0.00,,,0.00,WUHU21623XXSP,2013-03-19 15:49:00,
2013-03-19 10:51:00,48.7,30.9,30.20,South,180,7.8,7.8,50,0.00,,,0.00,WUHU21623XXSP,2013-03-19 15:51:00,
2013-03-19 10:55:00,48.9,31.1,30.20,SSW,202,7.4,7.4,50,0.00,,,0.00,WUHU21623XXSP,2013-03-19 15:55:00,
2013-03-19 10:57:00,49.1,31.3,30.20,SSE,157,7.2,7.2,50,0.00,,,0.00,WUHU21623XXSP,2013-03-19 15:57:00,
2013-03-19 10:59:00,49.1,31.3,30.20,South,180,9.8,9.8,50,0.00,,,0.00,WUHU21623XXSP,2013-03-19 15:59:00,
2013-03-19 11:01:00,49.1,31.7,30.20,SW,225,3.4,3.4,51,0.00,,,0.00,WUHU21623XXSP,2013-03-19 16:01:00,
2013-03-19 11:07:00,49.6,32.3,30.20,SW,225,7.6,7.6,51,0.00,,,0.00,WUHU21623XXSP,2013-03-19 16:07:00,
2013-03-19 11:14:00,50.2,32.3,30.21,SW,225,8.5,8.5,50,0.00,,,0.00,WUHU21623XXSP,2013-03-19 16:14:00,
2013-03-19 11:16:00,50.2,32.3,30.21,SW,225,8.5,8.5,50,0.00,,,0.00,WUHU21623XXSP,2013-03-19 16:16:00,
2013-03-19 11:20:00,50.4,32.5,30.21,South,180,6.5,6.5,50,0.00,,,0.00,WUHU21623XXSP,2013-03-19 16:20:00,
2013-03-19 11:22:00,50.4,32.5,30.21,SW,225,6.9,6.9,50,0.00,,,0.00,WUHU21623XXSP,2013-03-19 16:22:00,
2013-03-19 11:26:00,50.7,32.3,30.21,SW,225,7.4,7.4,49,0.00,,,0.00,WUHU21623XXSP,2013-03-19 16:26:00,
2013-03-19 11:28:00,50.7,32.3,30.21,SW,225,6.5,6.5,49,0.00,,,0.00,WUHU21623XXSP,2013-03-19 16:28:00,
2013-03-19 11:32:00,50.7,32.8,30.21,South,180,3.6,3.6,50,0.00,,,0.00,WUHU21623XXSP,2013-03-19 16:32:00,
2013-03-19 11:34:00,51.1,32.6,30.21,SSE,157,0.9,0.9,49,0.00,,,0.00,WUHU21623XXSP,2013-03-19 16:34:00,
2013-03-19 11:36:00,51.1,32.6,30.21,South,180,9.2,9.2,49,0.00,,,0.00,WUHU21623XXSP,2013-03-19 16:36:00,
2013-03-19 11:38:00,51.3,32.8,30.21,SW,225,8.3,8.3,49,0.00,,,0.00,WUHU21623XXSP,2013-03-19 16:38:00,
2013-03-19 11:44:00,51.4,32.4,30.21,North,0,0.0,0.0,48,0.00,,,0.00,WUHU21623XXSP,2013-03-19 16:44:00,
2013-03-19 11:50:00,51.6,32.0,30.21,SSE,157,2.9,5.8,47,0.00,,,0.00,WUHU21623XXSP,2013-03-19 16:50:00,
2013-03-19 11:52:00,51.6,32.0,30.21,North,0,0.0,0.0,47,0.00,,,0.00,WUHU21623XXSP,2013-03-19 16:52:00,
2013-03-19 11:54:00,51.8,32.7,30.21,SSE,157,7.6,7.6,48,0.00,,,0.00,WUHU21623XXSP,2013-03-19 16:54:00,
2013-03-19 11:56:00,51.8,32.1,30.21,SSE,157,6.5,6.5,47,0.00,,,0.00,WUHU21623XXSP,2013-03-19 16:56:00,
2013-03-19 12:00:00,51.6,31.4,30.21,North,0,0.0,0.0,46,0.00,,,0.00,WUHU21623XXSP,2013-03-19 17:00:00,
2013-03-19 12:02:00,51.6,31.4,30.21,WSW,247,3.6,3.6,46,0.00,,,0.00,WUHU21623XXSP,2013-03-19 17:02:00,
2013-03-19 12:04:00,51.8,32.1,30.21,WSW,247,4.9,4.9,47,0.00,,,0.00,WUHU21623XXSP,2013-03-19 17:04:00,
2013-03-19 12:10:00,52.0,31.8,30.21,WSW,247,7.6,7.6,46,0.00,,,0.00,WUHU21623XXSP,2013-03-19 17:10:00,
2013-03-19 12:12:00,52.0,31.7,30.21,WSW,247,1.6,1.6,46,0.00,,,0.00,WUHU21623XXSP,2013-03-19 17:12:00,
2013-03-19 12:14:00,52.2,31.9,30.21,WSW,247,1.6,1.6,46,0.00,,,0.00,WUHU21623XXSP,2013-03-19 17:14:00,
2013-03-19 12:16:00,52.3,31.4,30.21,WSW,247,9.6,9.6,45,0.00,,,0.00,WUHU21623XXSP,2013-03-19 17:16:00,
2013-03-19 12:20:00,52.4,32.2,30.21,WSW,247,8.3,8.3,46,0.00,,,0.00,WUHU21623XXSP,2013-03-19 17:20:00,
2013-03-19 12:24:00,52.4,31.6,30.21,North,0,0.0,0.0,45,0.00,,,0.00,WUHU21623XXSP,2013-03-19 17:24:00,
2013-03-19 12:28:00,52.6,31.7,30.22,WSW,247,10.3,10.3,45,0.00,,,0.00,WUHU21623XXSP,2013-03-19 17:28:00,
2013-03-19 12:30:00,52.8,31.9,30.22,WSW,247,7.4,7.4,45,0.00,,,0.00,WUHU21623XXSP,2013-03-19 17:30:00,
2013-03-19 12:34:00,52.7,31.3,30.22,WSW,247,6.7,6.7,44,0.00,,,0.00,WUHU21623XXSP,2013-03-19 17:34:00,
2013-03-19 12:36:00,52.7,31.3,30.22,North,0,0.0,0.0,44,0.00,,,0.00,WUHU21623XXSP,2013-03-19 17:36:00,
2013-03-19 12:40:00,53.2,31.7,30.22,WSW,247,7.6,7.6,44,0.00,,,0.00,WUHU21623XXSP,2013-03-19 17:40:00,
2013-03-19 12:42:00,53.2,31.7,30.22,WSW,247,10.5,10.5,44,0.00,,,0.00,WUHU21623XXSP,2013-03-19 17:42:00,
2013-03-19 12:46:00,53.2,31.1,30.21,WSW,247,6.9,6.9,43,0.00,,,0.00,WUHU21623XXSP,2013-03-19 17:46:00,
2013-03-19 12:48:00,53.1,30.5,30.21,WSW,247,7.8,7.8,42,0.00,,,0.00,WUHU21623XXSP,2013-03-19 17:48:00,
2013-03-19 12:53:00,52.9,30.9,30.22,WSW,247,6.5,6.5,43,0.00,,,0.00,WUHU21623XXSP,2013-03-19 17:53:00,
2013-03-19 12:55:00,52.9,30.9,30.22,WSW,247,11.0,11.0,43,0.00,,,0.00,WUHU21623XXSP,2013-03-19 17:55:00,
2013-03-19 12:57:00,53.1,31.0,30.22,WSW,247,6.5,6.5,43,0.00,,,0.00,WUHU21623XXSP,2013-03-19 17:57:00,
2013-03-19 12:59:00,53.1,31.0,30.22,WSW,247,7.2,7.2,43,0.00,,,0.00,WUHU21623XXSP,2013-03-19 17:59:00,
2013-03-19 13:01:00,53.1,31.0,30.22,WSW,247,7.6,7.6,43,0.00,,,0.00,WUHU21623XXSP,2013-03-19 18:01:00,
2013-03-19 13:03:00,53.0,31.0,30.22,WSW,247,9.2,9.2,43,0.00,,,0.00,WUHU21623XXSP,2013-03-19 18:03:00,
2013-03-19 13:07:00,53.4,31.3,30.22,WSW,247,5.4,5.4,43,0.00,,,0.00,WUHU21623XXSP,2013-03-19 18:07:00,
2013-03-19 13:12:00,53.4,30.7,30.22,WSW,247,6.9,6.9,42,0.00,,,0.00,WUHU21623XXSP,2013-03-19 18:12:00,
2013-03-19 13:14:00,53.6,30.9,30.22,WSW,247,8.9,8.9,42,0.00,,,0.00,WUHU21623XXSP,2013-03-19 18:14:00,
2013-03-19 13:18:00,53.4,29.5,30.22,WSW,247,10.5,10.5,40,0.00,,,0.00,WUHU21623XXSP,2013-03-19 18:18:00,
2013-03-19 13:20:00,53.1,29.3,30.22,WSW,247,6.0,6.0,40,0.00,,,0.00,WUHU21623XXSP,2013-03-19 18:20:00,
2013-03-19 13:24:00,53.3,30.0,30.22,WSW,247,6.3,10.5,41,0.00,,,0.00,WUHU21623XXSP,2013-03-19 18:24:00,
2013-03-19 13:26:00,53.3,30.6,30.22,WSW,247,7.8,7.8,42,0.00,,,0.00,WUHU21623XXSP,2013-03-19 18:26:00,
2013-03-19 13:30:00,53.6,30.3,30.21,WSW,247,11.9,11.9,41,0.00,,,0.00,WUHU21623XXSP,2013-03-19 18:30:00,
2013-03-19 13:34:00,53.8,29.8,30.21,North,0,0.0,0.0,40,0.00,,,0.00,WUHU21623XXSP,2013-03-19 18:34:00,
2013-03-19 13:40:00,53.9,28.7,30.20,WSW,247,10.3,10.3,38,0.00,,,0.00,WUHU21623XXSP,2013-03-19 18:40:00,
2013-03-19 13:45:00,54.1,28.8,30.20,WSW,247,8.1,8.1,38,0.00,,,0.00,WUHU21623XXSP,2013-03-19 18:45:00,
2013-03-19 13:47:00,53.9,28.6,30.20,WSW,247,8.3,8.3,38,0.00,,,0.00,WUHU21623XXSP,2013-03-19 18:47:00,
2013-03-19 13:51:00,54.0,28.8,30.21,WSW,247,8.7,8.7,38,0.00,,,0.00,WUHU21623XXSP,2013-03-19 18:51:00,
2013-03-19 13:53:00,54.0,28.8,30.21,North,0,0.0,0.0,38,0.00,,,0.00,WUHU21623XXSP,2013-03-19 18:53:00,
2013-03-19 13:55:00,54.2,29.0,30.21,WSW,247,6.7,6.7,38,0.00,,,0.00,WUHU21623XXSP,2013-03-19 18:55:00,
2013-03-19 13:57:00,54.3,29.0,30.21,WSW,247,9.2,9.2,38,0.00,,,0.00,WUHU21623XXSP,2013-03-19 18:57:00,
2013-03-19 14:01:00,54.5,27.8,30.20,WSW,247,8.7,8.7,36,0.00,,,0.00,WUHU21623XXSP,2013-03-19 19:01:00,
2013-03-19 14:05:00,54.2,27.6,30.20,WSW,247,10.3,10.3,36,0.00,,,0.00,WUHU21623XXSP,2013-03-19 19:05:00,
2013-03-19 14:11:00,53.9,28.0,30.20,WSW,247,7.2,7.2,37,0.00,,,0.00,WUHU21623XXSP,2013-03-19 19:11:00,
2013-03-19 14:13:00,54.1,28.2,30.20,North,0,0.0,0.0,37,0.00,,,0.00,WUHU21623XXSP,2013-03-19 19:13:00,
2013-03-19 14:17:00,54.4,28.4,30.20,WSW,247,8.3,8.3,37,0.00,,,0.00,WUHU21623XXSP,2013-03-19 19:17:00,
2013-03-19 14:19:00,54.4,28.4,30.20,WSW,247,11.4,11.4,37,0.00,,,0.00,WUHU21623XXSP,2013-03-19 19:19:00,
2013-03-19 14:21:00,54.4,28.4,30.20,WSW,247,9.6,9.6,37,0.00,,,0.00,WUHU21623XXSP,2013-03-19 19:21:00,
2013-03-19 14:27:00,54.5,28.6,30.20,WSW,247,3.1,3.1,37,0.00,,,0.00,WUHU21623XXSP,2013-03-19 19:27:00,
2013-03-19 14:29:00,54.7,28.1,30.20,WSW,247,12.8,12.8,36,0.00,,,0.00,WUHU21623XXSP,2013-03-19 19:29:00,
2013-03-19 14:31:00,54.5,27.9,30.20,WSW,247,7.6,7.6,36,0.00,,,0.00,WUHU21623XXSP,2013-03-19 19:31:00,
2013-03-19 14:37:00,54.5,27.8,30.20,WSW,247,7.8,7.8,36,0.00,,,0.00,WUHU21623XXSP,2013-03-19 19:37:00,
2013-03-19 14:39:00,54.3,27.6,30.20,WSW,247,8.1,8.1,36,0.00,,,0.00,WUHU21623XXSP,2013-03-19 19:39:00,
2013-03-19 14:41:00,54.4,28.5,30.19,WSW,247,10.7,10.7,37,0.00,,,0.00,WUHU21623XXSP,2013-03-19 19:41:00,
2013-03-19 14:43:00,54.6,28.7,30.20,WSW,247,11.0,11.0,37,0.00,,,0.00,WUHU21623XXSP,2013-03-19 19:43:00,
2013-03-19 14:45:00,54.8,28.1,30.20,WSW,247,6.9,6.9,36,0.00,,,0.00,WUHU21623XXSP,2013-03-19 19:45:00,
2013-03-19 14:52:00,54.8,27.4,30.20,WSW,247,8.9,8.9,35,0.00,,,0.00,WUHU21623XXSP,2013-03-19 19:52:00,
2013-03-19 14:54:00,54.9,27.5,30.20,WSW,247,9.8,9.8,35,0.00,,,0.00,WUHU21623XXSP,2013-03-19 19:54:00,
2013-03-19 14:56:00,54.9,27.5,30.20,WSW,247,8.9,8.9,35,0.00,,,0.00,WUHU21623XXSP,2013-03-19 19:56:00,
2013-03-19 14:58:00,55.1,26.2,30.20,WSW,247,8.1,8.1,33,0.00,,,0.00,WUHU21623XXSP,2013-03-19 19:58:00,
2013-03-19 15:02:00,54.5,25.8,30.20,WSW,247,6.9,6.9,33,0.00,,,0.00,WUHU21623XXSP,2013-03-19 20:02:00,
2013-03-19 15:04:00,54.7,27.4,30.20,North,0,0.0,0.0,35,0.00,,,0.00,WUHU21623XXSP,2013-03-19 20:04:00,
2013-03-19 15:08:00,54.8,27.4,30.20,WSW,247,8.1,8.1,35,0.00,,,0.00,WUHU21623XXSP,2013-03-19 20:08:00,
2013-03-19 15:10:00,55.2,27.8,30.20,WSW,247,9.8,9.8,35,0.00,,,0.00,WUHU21623XXSP,2013-03-19 20:10:00,
2013-03-19 15:12:00,55.0,26.9,30.19,WSW,247,7.2,7.2,34,0.00,,,0.00,WUHU21623XXSP,2013-03-19 20:12:00,
2013-03-19 15:14:00,55.0,26.1,30.19,WSW,247,3.4,3.4,33,0.00,,,0.00,WUHU21623XXSP,2013-03-19 20:14:00,
2013-03-19 15:18:00,54.9,26.9,30.20,WSW,247,4.7,4.7,34,0.00,,,0.00,WUHU21623XXSP,2013-03-19 20:18:00,
2013-03-19 15:20:00,55.1,26.3,30.19,WSW,247,5.8,5.8,33,0.00,,,0.00,WUHU21623XXSP,2013-03-19 20:20:00,
2013-03-19 15:24:00,55.1,27.7,30.19,WSW,247,8.9,8.9,35,0.00,,,0.00,WUHU21623XXSP,2013-03-19 20:24:00,
2013-03-19 15:26:00,54.9,26.1,30.19,North,0,0.0,0.0,33,0.00,,,0.00,WUHU21623XXSP,2013-03-19 20:26:00,
2013-03-19 15:28:00,54.9,27.5,30.19,WSW,247,6.5,6.5,35,0.00,,,0.00,WUHU21623XXSP,2013-03-19 20:28:00,
2013-03-19 15:32:00,55.1,27.7,30.19,WSW,247,10.5,10.5,35,0.00,,,0.00,WUHU21623XXSP,2013-03-19 20:32:00,
2013-03-19 15:34:00,55.1,27.0,30.19,WSW,247,2.0,2.0,34,0.00,,,0.00,WUHU21623XXSP,2013-03-19 20:34:00,
2013-03-19 15:36:00,55.3,27.8,30.19,North,0,0.0,0.0,35,0.00,,,0.00,WUHU21623XXSP,2013-03-19 20:36:00,
2013-03-19 15:39:00,55.4,28.0,30.19,WSW,247,7.6,7.6,35,0.00,,,0.00,WUHU21623XXSP,2013-03-19 20:39:00,
2013-03-19 15:45:00,55.2,27.8,30.19,WSW,247,7.2,7.2,35,0.00,,,0.00,WUHU21623XXSP,2013-03-19 20:45:00,
2013-03-19 15:49:00,55.2,27.8,30.18,North,0,0.0,0.0,35,0.00,,,0.00,WUHU21623XXSP,2013-03-19 20:49:00,
2013-03-19 15:55:00,55.2,27.8,30.19,WSW,247,8.3,8.3,35,0.00,,,0.00,WUHU21623XXSP,2013-03-19 20:55:00,
2013-03-19 15:59:00,55.1,27.7,30.19,North,0,0.0,0.0,35,0.00,,,0.00,WUHU21623XXSP,2013-03-19 20:59:00,
2013-03-19 16:01:00,55.1,28.4,30.19,WSW,247,5.8,5.8,36,0.00,,,0.00,WUHU21623XXSP,2013-03-19 21:01:00,
2013-03-19 16:05:00,55.1,27.7,30.18,SE,135,3.4,3.4,35,0.00,,,0.00,WUHU21623XXSP,2013-03-19 21:05:00,
2013-03-19 16:11:00,55.4,26.5,30.18,WSW,247,2.7,2.7,33,0.00,,,0.00,WUHU21623XXSP,2013-03-19 21:11:00,
2013-03-19 16:13:00,55.2,26.4,30.18,WSW,247,9.4,9.4,33,0.00,,,0.00,WUHU21623XXSP,2013-03-19 21:13:00,
2013-03-19 16:17:00,54.5,25.8,30.18,WSW,247,6.9,6.9,33,0.00,,,0.00,WUHU21623XXSP,2013-03-19 21:17:00,
2013-03-19 16:21:00,54.0,26.0,30.18,North,0,0.0,0.0,34,0.00,,,0.00,WUHU21623XXSP,2013-03-19 21:21:00,
2013-03-19 16:23:00,53.6,26.4,30.18,WSW,247,7.2,7.2,35,0.00,,,0.00,WUHU21623XXSP,2013-03-19 21:23:00,
2013-03-19 16:25:00,53.4,26.2,30.18,WSW,247,1.6,1.6,35,0.00,,,0.00,WUHU21623XXSP,2013-03-19 21:25:00,
2013-03-19 16:29:00,53.3,24.7,30.18,WSW,247,7.2,7.2,33,0.00,,,0.00,WUHU21623XXSP,2013-03-19 21:29:00,
2013-03-19 16:31:00,53.1,24.5,30.18,WSW,247,8.1,8.1,33,0.00,,,0.00,WUHU21623XXSP,2013-03-19 21:31:00,
2013-03-19 16:35:00,52.4,23.9,30.17,WSW,247,6.9,6.9,33,0.00,,,0.00,WUHU21623XXSP,2013-03-19 21:35:00,
2013-03-19 16:37:00,52.2,22.2,30.17,WSW,247,10.1,10.1,31,0.00,,,0.00,WUHU21623XXSP,2013-03-19 21:37:00,
2013-03-19 16:41:00,51.6,21.7,30.18,WSW,247,7.8,7.8,31,0.00,,,0.00,WUHU21623XXSP,2013-03-19 21:41:00,
2013-03-19 16:43:00,51.4,22.3,30.18,WSW,247,9.4,9.4,32,0.00,,,0.00,WUHU21623XXSP,2013-03-19 21:43:00,
2013-03-19 16:45:00,50.9,21.8,30.18,SSW,202,7.6,7.6,32,0.00,,,0.00,WUHU21623XXSP,2013-03-19 21:45:00,
2013-03-19 16:49:00,50.5,21.5,30.18,WSW,247,7.8,7.8,32,0.00,,,0.00,WUHU21623XXSP,2013-03-19 21:49:00,
2013-03-19 16:51:00,50.1,21.8,30.18,WSW,247,7.8,9.4,33,0.00,,,0.00,WUHU21623XXSP,2013-03-19 21:51:00,
2013-03-19 16:55:00,49.4,21.2,30.18,WSW,247,8.9,8.9,33,0.00,,,0.00,WUHU21623XXSP,2013-03-19 21:55:00,
2013-03-19 16:57:00,49.2,21.1,30.18,WSW,247,8.1,8.1,33,0.00,,,0.00,WUHU21623XXSP,2013-03-19 21:57:00,
2013-03-19 17:02:00,48.7,20.7,30.17,WSW,247,7.2,7.2,33,0.00,,,0.00,WUHU21623XXSP,2013-03-19 22:02:00,
2013-03-19 17:04:00,48.6,20.5,30.17,WSW,247,6.7,6.7,33,0.00,,,0.00,WUHU21623XXSP,2013-03-19 22:04:00,
2013-03-19 17:06:00,48.5,21.1,30.17,North,0,0.0,0.0,34,0.00,,,0.00,WUHU21623XXSP,2013-03-19 22:06:00,
2013-03-19 17:10:00,48.1,20.8,30.18,SW,225,8.3,8.3,34,0.00,,,0.00,WUHU21623XXSP,2013-03-19 22:10:00,
2013-03-19 17:12:00,48.0,20.7,30.17,NNW,337,8.1,8.1,34,0.00,,,0.00,WUHU21623XXSP,2013-03-19 22:12:00,
2013-03-19 17:16:00,47.5,20.3,30.17,North,0,9.2,9.2,34,0.00,,,0.00,WUHU21623XXSP,2013-03-19 22:16:00,
2013-03-19 17:18:00,47.4,20.2,30.17,North,0,8.9,8.9,34,0.00,,,0.00,WUHU21623XXSP,2013-03-19 22:18:00,
2013-03-19 17:22:00,46.8,19.7,30.17,North,0,7.8,7.8,34,0.00,,,0.00,WUHU21623XXSP,2013-03-19 22:22:00,
2013-03-19 17:24:00,46.7,19.6,30.17,NNE,22,7.2,7.2,34,0.00,,,0.00,WUHU21623XXSP,2013-03-19 22:24:00,
2013-03-19 17:29:00,46.3,19.9,30.17,NNE,22,6.9,6.9,35,0.00,,,0.00,WUHU21623XXSP,2013-03-19 22:29:00,
2013-03-19 17:35:00,46.0,21.0,30.17,NNE,22,7.8,7.8,37,0.00,,,0.00,WUHU21623XXSP,2013-03-19 22:35:00,
2013-03-19 17:37:00,46.0,20.9,30.16,NNE,22,6.3,6.3,37,0.00,,,0.00,WUHU21623XXSP,2013-03-19 22:37:00,
2013-03-19 17:41:00,45.8,20.8,30.16,North,0,10.5,10.5,37,0.00,,,0.00,WUHU21623XXSP,2013-03-19 22:41:00,
2013-03-19 17:43:00,45.8,20.7,30.16,North,0,8.1,8.1,37,0.00,,,0.00,WUHU21623XXSP,2013-03-19 22:43:00,
2013-03-19 17:45:00,45.7,20.7,30.16,North,0,6.5,6.5,37,0.00,,,0.00,WUHU21623XXSP,2013-03-19 22:45:00,
2013-03-19 17:51:00,45.5,20.5,30.16,North,0,0.0,0.0,37,0.00,,,0.00,WUHU21623XXSP,2013-03-19 22:51:00,
2013-03-19 17:53:00,45.6,20.5,30.16,North,0,3.4,3.4,37,0.00,,,0.00,WUHU21623XXSP,2013-03-19 22:53:00,
2013-03-19 17:57:00,45.2,20.8,30.16,North,0,5.4,5.4,38,0.00,,,0.00,WUHU21623XXSP,2013-03-19 22:57:00,
2013-03-19 17:59:00,45.1,20.8,30.16,North,0,0.0,0.0,38,0.00,,,0.00,WUHU21623XXSP,2013-03-19 22:59:00,
2013-03-19 18:03:00,44.9,20.6,30.16,North,0,3.8,3.8,38,0.00,,,0.00,WUHU21623XXSP,2013-03-19 23:03:00,
2013-03-19 18:05:00,45.1,20.8,30.16,North,0,2.5,2.5,38,0.00,,,0.00,WUHU21623XXSP,2013-03-19 23:05:00,
2013-03-19 18:09:00,44.7,20.4,30.16,North,0,5.4,5.4,38,0.00,,,0.00,WUHU21623XXSP,2013-03-19 23:09:00,
2013-03-19 18:11:00,44.6,20.4,30.16,North,0,3.1,3.1,38,0.00,,,0.00,WUHU21623XXSP,2013-03-19 23:11:00,
2013-03-19 18:15:00,44.5,20.8,30.17,North,0,0.0,0.0,39,0.00,,,0.00,WUHU21623XXSP,2013-03-19 23:15:00,
2013-03-19 18:17:00,44.4,20.7,30.16,North,0,1.3,1.3,39,0.00,,,0.00,WUHU21623XXSP,2013-03-19 23:17:00,
2013-03-19 18:21:00,44.4,21.4,30.17,NNW,337,5.1,5.1,40,0.00,,,0.00,WUHU21623XXSP,2013-03-19 23:21:00,
2013-03-19 18:23:00,44.2,21.2,30.17,North,0,6.0,6.0,40,0.00,,,0.00,WUHU21623XXSP,2013-03-19 23:23:00,
2013-03-19 18:27:00,44.3,21.3,30.17,North,0,6.3,6.3,40,0.00,,,0.00,WUHU21623XXSP,2013-03-19 23:27:00,
2013-03-19 18:29:00,44.1,21.1,30.16,North,0,0.0,0.0,40,0.00,,,0.00,WUHU21623XXSP,2013-03-19 23:29:00,
2013-03-19 18:32:00,43.9,21.0,30.16,North,0,5.1,5.1,40,0.00,,,0.00,WUHU21623XXSP,2013-03-19 23:32:00,
2013-03-19 18:34:00,44.0,21.0,30.16,North,0,3.1,3.1,40,0.00,,,0.00,WUHU21623XXSP,2013-03-19 23:34:00,
2013-03-19 18:36:00,43.8,21.5,30.16,North,0,2.0,2.0,41,0.00,,,0.00,WUHU21623XXSP,2013-03-19 23:36:00,
2013-03-19 18:40:00,43.6,21.3,30.16,North,0,7.4,7.4,41,0.00,,,0.00,WUHU21623XXSP,2013-03-19 23:40:00,
2013-03-19 18:44:00,43.6,21.2,30.16,North,0,0.0,0.0,41,0.00,,,0.00,WUHU21623XXSP,2013-03-19 23:44:00,
2013-03-19 18:48:00,43.3,21.6,30.16,North,0,4.0,4.0,42,0.00,,,0.00,WUHU21623XXSP,2013-03-19 23:48:00,
2013-03-19 18:50:00,43.4,21.7,30.16,North,0,2.9,2.9,42,0.00,,,0.00,WUHU21623XXSP,2013-03-19 23:50:00,
2013-03-19 18:52:00,43.4,22.2,30.17,North,0,5.6,5.6,43,0.00,,,0.00,WUHU21623XXSP,2013-03-19 23:52:00,
2013-03-19 18:54:00,43.3,22.1,30.17,North,0,5.1,5.1,43,0.00,,,0.00,WUHU21623XXSP,2013-03-19 23:54:00,
2013-03-19 19:00:00,43.1,22.5,30.16,North,0,1.6,1.6,44,0.00,,,0.00,WUHU21623XXSP,2013-03-20 00:00:00,
2013-03-19 19:06:00,43.1,22.5,30.16,North,0,0.2,0.2,44,0.00,,,0.00,WUHU21623XXSP,2013-03-20 00:06:00,
2013-03-19 19:10:00,43.1,23.1,30.17,North,0,3.1,3.1,45,0.00,,,0.00,WUHU21623XXSP,2013-03-20 00:10:00,
2013-03-19 19:12:00,43.0,23.0,30.17,North,0,0.0,0.0,45,0.00,,,0.00,WUHU21623XXSP,2013-03-20 00:12:00,
2013-03-19 19:18:00,43.2,23.7,30.17,North,0,0.0,0.0,46,0.00,,,0.00,WUHU21623XXSP,2013-03-20 00:18:00,
2013-03-19 19:20:00,43.1,23.6,30.17,North,0,0.0,0.0,46,0.00,,,0.00,WUHU21623XXSP,2013-03-20 00:20:00,
2013-03-19 19:22:00,43.2,23.7,30.16,North,0,0.0,0.0,46,0.00,,,0.00,WUHU21623XXSP,2013-03-20 00:22:00,
2013-03-19 19:28:00,43.7,24.1,30.17,NNE,22,1.8,1.8,46,0.00,,,0.00,WUHU21623XXSP,2013-03-20 00:28:00,
2013-03-19 19:32:00,43.9,24.8,30.16,North,0,1.8,1.8,47,0.00,,,0.00,WUHU21623XXSP,2013-03-20 00:32:00,
2013-03-19 19:36:00,43.8,24.2,30.17,NNE,22,3.6,3.6,46,0.00,,,0.00,WUHU21623XXSP,2013-03-20 00:36:00,
2013-03-19 19:38:00,43.9,24.4,30.17,NE,45,7.6,7.6,46,0.00,,,0.00,WUHU21623XXSP,2013-03-20 00:38:00,
2013-03-19 19:40:00,44.1,24.5,30.17,NNE,22,7.4,7.4,46,0.00,,,0.00,WUHU21623XXSP,2013-03-20 00:40:00,
2013-03-19 19:44:00,44.2,24.1,30.17,NNE,22,7.2,7.2,45,0.00,,,0.00,WUHU21623XXSP,2013-03-20 00:44:00,
2013-03-19 19:46:00,44.4,23.7,30.17,NNE,22,5.6,5.6,44,0.00,,,0.00,WUHU21623XXSP,2013-03-20 00:46:00,
2013-03-19 19:50:00,44.7,24.0,30.17,NNE,22,0.7,0.7,44,0.00,,,0.00,WUHU21623XXSP,2013-03-20 00:50:00,
2013-03-19 19:52:00,44.7,23.9,30.17,NE,45,0.7,0.7,44,0.00,,,0.00,WUHU21623XXSP,2013-03-20 00:52:00,
2013-03-19 19:54:00,44.8,24.1,30.17,NNE,22,4.3,4.3,44,0.00,,,0.00,WUHU21623XXSP,2013-03-20 00:54:00,
2013-03-19 19:58:00,45.1,24.4,30.17,NE,45,2.0,2.0,44,0.00,,,0.00,WUHU21623XXSP,2013-03-20 00:58:00,
2013-03-19 20:02:00,45.3,24.5,30.17,NNE,22,1.1,1.1,44,0.00,,,0.00,WUHU21623XXSP,2013-03-20 01:02:00,
2013-03-19 20:04:00,45.4,24.7,30.17,North,0,3.1,3.1,44,0.00,,,0.00,WUHU21623XXSP,2013-03-20 01:04:00,
2013-03-19 20:07:00,45.6,24.8,30.17,North,0,0.0,0.0,44,0.00,,,0.00,WUHU21623XXSP,2013-03-20 01:07:00,
2013-03-19 20:09:00,45.5,24.7,30.17,North,0,0.0,0.0,44,0.00,,,0.00,WUHU21623XXSP,2013-03-20 01:09:00,
2013-03-19 20:11:00,45.5,24.7,30.17,NNE,22,2.9,2.9,44,0.00,,,0.00,WUHU21623XXSP,2013-03-20 01:11:00,
2013-03-19 20:17:00,45.3,25.1,30.17,NNE,22,5.6,5.6,45,0.00,,,0.00,WUHU21623XXSP,2013-03-20 01:17:00,
2013-03-19 20:19:00,45.3,25.1,30.17,North,0,0.0,0.0,45,0.00,,,0.00,WUHU21623XXSP,2013-03-20 01:19:00,
2013-03-19 20:21:00,45.3,25.1,30.17,North,0,0.0,0.0,45,0.00,,,0.00,WUHU21623XXSP,2013-03-20 01:21:00,
2013-03-19 20:27:00,45.1,24.9,30.17,NNE,22,7.6,7.6,45,0.00,,,0.00,WUHU21623XXSP,2013-03-20 01:27:00,
2013-03-19 20:33:00,45.1,24.9,30.17,NNE,22,8.5,8.5,45,0.00,,,0.00,WUHU21623XXSP,2013-03-20 01:33:00,
2013-03-19 20:35:00,45.1,24.3,30.17,NNE,22,3.4,3.4,44,0.00,,,0.00,WUHU21623XXSP,2013-03-20 01:35:00,
2013-03-19 20:39:00,45.3,24.5,30.18,North,0,6.9,6.9,44,0.00,,,0.00,WUHU21623XXSP,2013-03-20 01:39:00,
2013-03-19 20:43:00,45.3,25.1,30.17,NNE,22,0.9,0.9,45,0.00,,,0.00,WUHU21623XXSP,2013-03-20 01:43:00,
2013-03-19 20:45:00,45.3,25.1,30.17,NNE,22,4.3,4.3,45,0.00,,,0.00,WUHU21623XXSP,2013-03-20 01:45:00,
2013-03-19 20:47:00,45.1,24.9,30.18,NNE,22,3.1,3.1,45,0.00,,,0.00,WUHU21623XXSP,2013-03-20 01:47:00,
2013-03-19 20:53:00,45.1,24.4,30.18,North,0,0.0,0.0,44,0.00,,,0.00,WUHU21623XXSP,2013-03-20 01:53:00,
2013-03-19 20:55:00,45.1,24.9,30.18,North,0,5.8,5.8,45,0.00,,,0.00,WUHU21623XXSP,2013-03-20 01:55:00,
2013-03-19 21:00:00,45.1,24.9,30.18,North,0,6.7,6.7,45,0.00,,,0.00,WUHU21623XXSP,2013-03-20 02:00:00,
2013-03-19 21:02:00,45.1,24.9,30.18,North,0,1.6,1.6,45,0.00,,,0.00,WUHU21623XXSP,2013-03-20 02:02:00,
2013-03-19 21:08:00,44.9,25.3,30.18,NNE,22,7.4,7.4,46,0.00,,,0.00,WUHU21623XXSP,2013-03-20 02:08:00,
2013-03-19 21:12:00,44.8,25.2,30.18,North,0,4.9,4.9,46,0.00,,,0.00,WUHU21623XXSP,2013-03-20 02:12:00,
2013-03-19 21:14:00,44.8,25.2,30.18,NNE,22,4.7,4.7,46,0.00,,,0.00,WUHU21623XXSP,2013-03-20 02:14:00,
2013-03-19 21:16:00,44.6,25.0,30.18,NNE,22,0.7,0.7,46,0.00,,,0.00,WUHU21623XXSP,2013-03-20 02:16:00,
2013-03-19 21:22:00,44.3,24.7,30.19,North,0,0.0,0.0,46,0.00,,,0.00,WUHU21623XXSP,2013-03-20 02:22:00,
2013-03-19 21:24:00,44.3,24.7,30.19,North,0,2.0,2.0,46,0.00,,,0.00,WUHU21623XXSP,2013-03-20 02:24:00,
2013-03-19 21:28:00,44.3,24.7,30.19,North,0,0.0,0.0,46,0.00,,,0.00,WUHU21623XXSP,2013-03-20 02:28:00,
2013-03-19 21:30:00,44.3,24.7,30.19,NNE,22,1.8,1.8,46,0.00,,,0.00,WUHU21623XXSP,2013-03-20 02:30:00,
2013-03-19 21:36:00,44.1,24.5,30.19,NNE,22,0.9,1.8,46,0.00,,,0.00,WUHU21623XXSP,2013-03-20 02:36:00,
2013-03-19 21:38:00,44.1,24.5,30.19,North,0,0.0,0.0,46,0.00,,,0.00,WUHU21623XXSP,2013-03-20 02:38:00,
2013-03-19 21:42:00,43.8,24.2,30.19,North,0,0.0,0.0,46,0.00,,,0.00,WUHU21623XXSP,2013-03-20 02:42:00,
2013-03-19 21:44:00,43.8,24.2,30.19,North,0,0.0,0.0,46,0.00,,,0.00,WUHU21623XXSP,2013-03-20 02:44:00,
2013-03-19 21:46:00,43.6,24.1,30.19,North,0,0.0,0.0,46,0.00,,,0.00,WUHU21623XXSP,2013-03-20 02:46:00,
2013-03-19 21:48:00,43.6,24.1,30.19,North,0,0.0,0.0,46,0.00,,,0.00,WUHU21623XXSP,2013-03-20 02:48:00,
2013-03-19 21:55:00,43.4,23.9,30.19,North,0,0.0,0.0,46,0.00,,,0.00,WUHU21623XXSP,2013-03-20 02:55:00,
2013-03-19 21:57:00,43.4,23.9,30.19,North,0,0.0,0.0,46,0.00,,,0.00,WUHU21623XXSP,2013-03-20 02:57:00,
2013-03-19 21:59:00,43.2,23.7,30.19,North,0,0.0,0.0,46,0.00,,,0.00,WUHU21623XXSP,2013-03-20 02:59:00,
2013-03-19 22:01:00,43.2,23.7,30.19,North,0,0.0,0.0,46,0.00,,,0.00,WUHU21623XXSP,2013-03-20 03:01:00,
2013-03-19 22:03:00,43.2,23.7,30.19,North,0,0.0,0.0,46,0.00,,,0.00,WUHU21623XXSP,2013-03-20 03:03:00,
2013-03-19 22:07:00,43.2,23.7,30.19,North,0,0.0,0.0,46,0.00,,,0.00,WUHU21623XXSP,2013-03-20 03:07:00,
2013-03-19 22:09:00,43.3,23.7,30.19,North,0,0.0,0.0,46,0.00,,,0.00,WUHU21623XXSP,2013-03-20 03:09:00,
2013-03-19 22:11:00,43.3,23.8,30.19,North,0,0.0,0.0,46,0.00,,,0.00,WUHU21623XXSP,2013-03-20 03:11:00,
2013-03-19 22:15:00,43.3,23.8,30.20,NNE,22,0.0,0.0,46,0.00,,,0.00,WUHU21623XXSP,2013-03-20 03:15:00,
2013-03-19 22:17:00,43.2,23.7,30.19,North,0,0.0,0.0,46,0.00,,,0.00,WUHU21623XXSP,2013-03-20 03:17:00,
2013-03-19 22:19:00,43.2,23.7,30.19,North,0,0.0,0.0,46,0.00,,,0.00,WUHU21623XXSP,2013-03-20 03:19:00,
2013-03-19 22:23:00,43.2,23.7,30.19,North,0,0.0,0.0,46,0.00,,,0.00,WUHU21623XXSP,2013-03-20 03:23:00,
2013-03-19 22:25:00,43.2,23.2,30.19,North,0,0.0,0.0,45,0.00,,,0.00,WUHU21623XXSP,2013-03-20 03:25:00,
2013-03-19 22:31:00,43.2,23.7,30.19,North,0,0.0,0.0,46,0.00,,,0.00,WUHU21623XXSP,2013-03-20 03:31:00,
2013-03-19 22:33:00,43.0,23.5,30.19,North,0,0.0,0.0,46,0.00,,,0.00,WUHU21623XXSP,2013-03-20 03:33:00,
2013-03-19 22:37:00,43.0,23.5,30.19,North,0,0.0,0.0,46,0.00,,,0.00,WUHU21623XXSP,2013-03-20 03:37:00,
2013-03-19 22:39:00,42.8,23.4,30.19,North,0,0.0,0.0,46,0.00,,,0.00,WUHU21623XXSP,2013-03-20 03:39:00,
2013-03-19 22:43:00,42.8,23.4,30.19,North,0,0.0,0.0,46,0.00,,,0.00,WUHU21623XXSP,2013-03-20 03:43:00,
2013-03-19 22:45:00,42.9,23.4,30.19,North,0,0.0,0.0,46,0.00,,,0.00,WUHU21623XXSP,2013-03-20 03:45:00,
2013-03-19 22:49:00,42.9,23.9,30.19,North,0,0.0,0.0,47,0.00,,,0.00,WUHU21623XXSP,2013-03-20 03:49:00,
2013-03-19 22:51:00,42.7,23.7,30.19,North,0,0.0,0.0,47,0.00,,,0.00,WUHU21623XXSP,2013-03-20 03:51:00,
2013-03-19 22:55:00,42.7,23.8,30.19,North,0,0.0,0.0,47,0.00,,,0.00,WUHU21623XXSP,2013-03-20 03:55:00,
2013-03-19 23:00:00,42.7,23.8,30.20,NNE,22,0.0,0.0,47,0.00,,,0.00,WUHU21623XXSP,2013-03-20 04:00:00,
2013-03-19 23:02:00,42.7,24.3,30.20,North,0,0.0,0.0,48,0.00,,,0.00,WUHU21623XXSP,2013-03-20 04:02:00,
2013-03-19 23:06:00,42.7,24.3,30.20,North,0,0.0,0.0,48,0.00,,,0.00,WUHU21623XXSP,2013-03-20 04:06:00,
2013-03-19 23:08:00,42.7,24.3,30.20,North,0,0.0,0.0,48,0.00,,,0.00,WUHU21623XXSP,2013-03-20 04:08:00,
2013-03-19 23:12:00,42.7,24.8,30.20,North,0,0.0,0.0,49,0.00,,,0.00,WUHU21623XXSP,2013-03-20 04:12:00,
2013-03-19 23:14:00,42.6,24.7,30.20,North,0,0.0,0.0,49,0.00,,,0.00,WUHU21623XXSP,2013-03-20 04:14:00,
2013-03-19 23:16:00,42.6,25.2,30.20,North,0,0.0,0.0,50,0.00,,,0.00,WUHU21623XXSP,2013-03-20 04:16:00,
2013-03-19 23:20:00,42.5,25.1,30.20,North,0,0.0,0.0,50,0.00,,,0.00,WUHU21623XXSP,2013-03-20 04:20:00,
2013-03-19 23:22:00,42.3,24.9,30.20,North,0,0.0,0.0,50,0.00,,,0.00,WUHU21623XXSP,2013-03-20 04:22:00,
2013-03-19 23:24:00,42.3,24.9,30.20,North,0,0.0,0.0,50,0.00,,,0.00,WUHU21623XXSP,2013-03-20 04:24:00,
2013-03-19 23:26:00,42.3,24.9,30.20,North,0,0.0,0.0,50,0.00,,,0.00,WUHU21623XXSP,2013-03-20 04:26:00,
2013-03-19 23:30:00,42.3,24.9,30.20,North,0,0.0,0.0,50,0.00,,,0.00,WUHU21623XXSP,2013-03-20 04:30:00,
2013-03-19 23:32:00,42.3,25.0,30.20,North,0,0.0,0.0,50,0.00,,,0.00,WUHU21623XXSP,2013-03-20 04:32:00,
2013-03-19 23:36:00,42.3,25.5,30.20,North,0,0.0,0.0,51,0.00,,,0.00,WUHU21623XXSP,2013-03-20 04:36:00,
2013-03-19 23:38:00,42.3,25.5,30.20,North,0,0.0,0.0,51,0.00,,,0.00,WUHU21623XXSP,2013-03-20 04:38:00,
2013-03-19 23:40:00,42.4,25.5,30.20,North,0,0.0,0.0,51,0.00,,,0.00,WUHU21623XXSP,2013-03-20 04:40:00,
2013-03-19 23:42:00,42.4,25.5,30.20,North,0,0.0,0.0,51,0.00,,,0.00,WUHU21623XXSP,2013-03-20 04:42:00,
2013-03-19 23:46:00,42.4,25.5,30.20,North,0,0.0,0.0,51,0.00,,,0.00,WUHU21623XXSP,2013-03-20 04:46:00,
2013-03-19 23:48:00,42.2,25.8,30.20,North,0,0.0,0.0,52,0.00,,,0.00,WUHU21623XXSP,2013-03-20 04:48:00,
2013-03-19 23:50:00,42.2,25.8,30.20,North,0,0.0,0.0,52,0.00,,,0.00,WUHU21623XXSP,2013-03-20 04:50:00,
2013-03-19 23:54:00,42.0,25.6,30.20,North,0,0.0,0.0,52,0.00,,,0.00,WUHU21623XXSP,2013-03-20 04:54:00,
2013-03-19 23:57:00,42.0,25.6,30.20,North,0,0.0,0.0,52,0.00,,,0.00,WUHU21623XXSP,2013-03-20 04:57:00,